createdAt,value
2023-03-27T00:01:31.222Z,98766.91
2023-03-27T00:04:00.628Z,98765.09
2023-03-27T00:06:34.879Z,98763.28
2023-03-27T00:09:05.159Z,98757.34
2023-03-27T00:11:34.425Z,98759.25
2023-03-27T00:14:03.298Z,98756.59
2023-03-27T00:16:33.375Z,98755.09
2023-03-27T00:19:02.278Z,98754.16
2023-03-27T00:21:31.078Z,98751.69
2023-03-27T00:24:00.697Z,98734.69
2023-03-27T00:26:30.750Z,98737.13
2023-03-27T00:28:59.711Z,98740.50
2023-03-27T00:31:28.329Z,98738.56
2023-03-27T00:33:58.685Z,98735.91
2023-03-27T00:36:28.100Z,98733.31
2023-03-27T00:38:57.434Z,98724.13
2023-03-27T00:41:27.391Z,98721.00
2023-03-27T00:43:56.459Z,98724.06
2023-03-27T00:46:32.741Z,98723.03
2023-03-27T00:49:05.762Z,98720.09
2023-03-27T00:51:36.738Z,98716.63
2023-03-27T00:54:07.139Z,98719.00
2023-03-27T00:56:38.739Z,98721.78
2023-03-27T00:59:10.447Z,98724.06
2023-03-27T01:01:40.016Z,98716.16
2023-03-27T01:04:10.509Z,98716.50
2023-03-27T01:06:42.455Z,98718.50
2023-03-27T01:09:11.438Z,98724.78
2023-03-27T01:12:02.726Z,98729.56
2023-03-27T01:14:38.303Z,98723.78
2023-03-27T01:17:19.518Z,98733.50
2023-03-27T01:20:14.171Z,98740.59
2023-03-27T01:23:08.640Z,98739.94
2023-03-27T01:26:35.555Z,98735.66
2023-03-27T01:29:09.900Z,98734.22
2023-03-27T01:31:51.667Z,98737.19
2023-03-27T01:35:01.203Z,98735.22
2023-03-27T01:37:56.523Z,98735.56
2023-03-27T01:40:29.246Z,98734.47
2023-03-27T01:43:03.565Z,98733.47
2023-03-27T01:45:36.597Z,98734.28
2023-03-27T01:48:09.603Z,98742.53
2023-03-27T01:50:41.874Z,98746.13
2023-03-27T01:53:14.487Z,98743.50
2023-03-27T01:55:49.256Z,98752.25
2023-03-27T01:58:20.914Z,98758.16
2023-03-27T02:00:53.731Z,98750.94
2023-03-27T02:03:27.040Z,98754.88
2023-03-27T02:05:58.604Z,98757.50
2023-03-27T02:08:32.313Z,98746.16
2023-03-27T02:11:12.196Z,98746.50
2023-03-27T02:13:43.305Z,98740.06
2023-03-27T02:16:16.681Z,98744.19
2023-03-27T02:18:48.540Z,98743.88
2023-03-27T02:21:17.739Z,98744.84
2023-03-27T02:23:47.771Z,98741.38
2023-03-27T02:26:18.159Z,98744.81
2023-03-27T02:28:57.362Z,98740.56
2023-03-27T02:31:38.703Z,98738.72
2023-03-27T02:34:19.791Z,98748.28
2023-03-27T02:36:55.176Z,98748.91
2023-03-27T02:39:40.289Z,98754.19
2023-03-27T02:42:14.268Z,98748.91
2023-03-27T02:44:51.852Z,98744.16
2023-03-27T02:47:25.921Z,98741.00
2023-03-27T02:49:56.920Z,98744.63
2023-03-27T02:52:29.939Z,98736.38
2023-03-27T02:55:06.262Z,98745.25
2023-03-27T02:57:39.971Z,98744.59
2023-03-27T03:00:28.386Z,98737.91
2023-03-27T03:03:21.079Z,98737.41
2023-03-27T03:05:59.203Z,98731.81
2023-03-27T03:08:30.607Z,98739.47
2023-03-27T03:11:06.118Z,98743.22
2023-03-27T03:13:37.260Z,98747.97
2023-03-27T03:16:08.831Z,98749.28
2023-03-27T03:18:37.885Z,98756.66
2023-03-27T03:21:07.292Z,98755.69
2023-03-27T03:23:36.219Z,98751.28
2023-03-27T03:26:06.658Z,98752.56
2023-03-27T03:29:00.521Z,98750.06
2023-03-27T03:31:44.493Z,98752.66
2023-03-27T03:34:16.315Z,98749.06
2023-03-27T03:36:49.411Z,98753.66
2023-03-27T03:39:23.507Z,98754.75
2023-03-27T03:41:52.784Z,98743.75
2023-03-27T03:44:23.154Z,98751.00
2023-03-27T03:46:51.752Z,98758.25
2023-03-27T03:49:23.070Z,98753.56
2023-03-27T03:52:03.563Z,98763.25
2023-03-27T03:54:34.163Z,98760.38
2023-03-27T03:57:03.664Z,98756.97
2023-03-27T03:59:36.140Z,98763.09
2023-03-27T04:02:30.209Z,98752.06
2023-03-27T04:05:09.796Z,98752.41
2023-03-27T04:07:42.581Z,98755.84
2023-03-27T04:10:34.778Z,98762.94
2023-03-27T04:13:07.649Z,98766.22
2023-03-27T04:15:43.440Z,98772.00
2023-03-27T04:18:20.783Z,98763.44
2023-03-27T04:20:50.485Z,98765.09
2023-03-27T04:23:21.799Z,98763.25
2023-03-27T04:25:50.595Z,98771.34
2023-03-27T04:28:27.308Z,98777.59
2023-03-27T04:31:11.017Z,98766.06
2023-03-27T04:34:20.590Z,98771.16
2023-03-27T04:37:09.712Z,98766.25
2023-03-27T04:39:44.701Z,98775.13
2023-03-27T04:42:14.193Z,98778.25
2023-03-27T04:44:46.549Z,98779.91
2023-03-27T04:47:17.575Z,98781.69
2023-03-27T04:49:47.215Z,98783.53
2023-03-27T04:52:29.819Z,98792.91
2023-03-27T04:55:01.667Z,98795.03
2023-03-27T04:57:31.988Z,98800.94
2023-03-27T05:00:14.082Z,98804.75
2023-03-27T05:02:53.441Z,98806.56
2023-03-27T05:05:45.562Z,98805.91
2023-03-27T05:08:14.813Z,98806.06
2023-03-27T05:10:43.985Z,98807.72
2023-03-27T05:13:13.175Z,98800.66
2023-03-27T05:15:43.114Z,98804.59
2023-03-27T05:18:17.491Z,98806.41
2023-03-27T05:20:53.418Z,98810.34
2023-03-27T05:23:21.973Z,98808.03
2023-03-27T05:26:00.074Z,98800.31
2023-03-27T05:28:45.284Z,98806.84
2023-03-27T05:31:14.525Z,98811.31
2023-03-27T05:34:11.586Z,98812.34
2023-03-27T05:36:42.993Z,98810.97
2023-03-27T05:39:13.256Z,98818.47
2023-03-27T05:41:44.709Z,98819.75
2023-03-27T05:44:20.282Z,98822.31
2023-03-27T05:46:49.068Z,98821.66
2023-03-27T05:49:25.969Z,98811.38
2023-03-27T05:52:00.355Z,98824.22
2023-03-27T05:54:29.445Z,98826.66
2023-03-27T05:57:08.046Z,98834.09
2023-03-27T05:59:37.566Z,98832.03
2023-03-27T06:02:24.138Z,98838.78
2023-03-27T06:05:01.429Z,98839.03
2023-03-27T06:07:36.452Z,98847.22
2023-03-27T06:10:13.655Z,98845.56
2023-03-27T06:12:43.514Z,98843.78
2023-03-27T06:15:32.511Z,98844.59
2023-03-27T06:18:30.552Z,98853.66
2023-03-27T06:21:02.383Z,98843.19
2023-03-27T06:23:32.008Z,98854.75
2023-03-27T06:26:01.080Z,98858.31
2023-03-27T06:28:32.665Z,98856.50
2023-03-27T06:31:26.632Z,98856.88
2023-03-27T06:34:08.714Z,98867.44
2023-03-27T06:36:59.987Z,98867.84
2023-03-27T06:39:29.950Z,98876.00
2023-03-27T06:41:59.410Z,98874.00
2023-03-27T06:44:46.609Z,98880.91
2023-03-27T06:47:48.116Z,98881.91
2023-03-27T06:50:35.489Z,98885.00
2023-03-27T06:53:19.659Z,98886.44
2023-03-27T06:55:54.993Z,98880.25
2023-03-27T06:58:25.577Z,98888.03
2023-03-27T07:00:55.550Z,98891.28
2023-03-27T07:03:25.925Z,98892.59
2023-03-27T07:06:10.186Z,98894.22
2023-03-27T07:08:53.812Z,98885.19
2023-03-27T07:11:22.483Z,98893.19
2023-03-27T07:14:05.692Z,98883.72
2023-03-27T07:16:34.830Z,98894.38
2023-03-27T07:19:04.036Z,98887.44
2023-03-27T07:21:35.043Z,98889.63
2023-03-27T07:24:05.679Z,98895.41
2023-03-27T07:26:38.054Z,98889.50
2023-03-27T07:29:22.880Z,98894.78
2023-03-27T07:31:58.552Z,98895.41
2023-03-27T07:34:51.617Z,98907.53
2023-03-27T07:37:39.446Z,98914.50
2023-03-27T07:40:37.252Z,98904.91
2023-03-27T07:43:43.656Z,98909.59
2023-03-27T07:46:12.937Z,98917.41
2023-03-27T07:48:42.060Z,98917.53
2023-03-27T07:51:17.679Z,98924.47
2023-03-27T07:53:47.995Z,98928.28
2023-03-27T07:56:26.609Z,98928.88
2023-03-27T07:59:16.718Z,98933.50
2023-03-27T08:01:45.665Z,98933.31
2023-03-27T08:04:15.500Z,98941.03
2023-03-27T08:06:49.002Z,98944.59
2023-03-27T08:09:22.870Z,98944.13
2023-03-27T08:11:53.291Z,98947.44
2023-03-27T08:14:22.033Z,98948.09
2023-03-27T08:16:50.654Z,98954.16
2023-03-27T08:19:21.364Z,98957.66
2023-03-27T08:21:54.488Z,98961.97
2023-03-27T08:24:23.611Z,98964.81
2023-03-27T08:27:12.394Z,98965.44
2023-03-27T08:29:44.989Z,98973.28
2023-03-27T08:32:14.714Z,98974.44
2023-03-27T08:34:45.785Z,98974.72
2023-03-27T08:37:20.128Z,98982.06
2023-03-27T08:40:26.243Z,98980.09
2023-03-27T08:43:17.826Z,98998.00
2023-03-27T08:45:50.054Z,98996.69
2023-03-27T08:48:26.385Z,98999.03
2023-03-27T08:50:58.488Z,99002.31
2023-03-27T08:53:34.307Z,99009.34
2023-03-27T08:56:05.585Z,99007.72
2023-03-27T08:58:42.909Z,99005.59
2023-03-27T09:01:29.612Z,99015.94
2023-03-27T09:04:05.974Z,99006.44
2023-03-27T09:06:39.864Z,99013.16
2023-03-27T09:09:15.652Z,99017.72
2023-03-27T09:11:53.394Z,99020.75
2023-03-27T09:14:33.328Z,99016.22
2023-03-27T09:17:06.160Z,99016.72
2023-03-27T09:19:44.047Z,99021.47
2023-03-27T09:22:20.436Z,99026.25
2023-03-27T09:25:11.094Z,99021.16
2023-03-27T09:28:03.698Z,99046.84
2023-03-27T09:30:41.685Z,99045.63
2023-03-27T09:33:16.515Z,99050.75
2023-03-27T09:35:48.238Z,99043.94
2023-03-27T09:38:29.869Z,99043.56
2023-03-27T09:41:01.914Z,99043.31
2023-03-27T09:43:41.652Z,99050.97
2023-03-27T09:46:17.567Z,99048.19
2023-03-27T09:48:53.443Z,99059.94
2023-03-27T09:51:43.903Z,99069.81
2023-03-27T09:54:52.936Z,99067.69
2023-03-27T09:57:32.311Z,99066.75
2023-03-27T10:00:07.670Z,99083.38
2023-03-27T10:02:45.756Z,99081.53
2023-03-27T10:05:23.280Z,99077.50
2023-03-27T10:07:56.463Z,99084.25
2023-03-27T10:10:32.611Z,99077.16
2023-03-27T10:13:04.585Z,99086.94
2023-03-27T10:15:39.829Z,99092.06
2023-03-27T10:18:27.263Z,99096.75
2023-03-27T10:21:10.925Z,99096.47
2023-03-27T10:23:44.312Z,99086.75
2023-03-27T10:26:23.187Z,99087.25
2023-03-27T10:28:52.813Z,99094.19
2023-03-27T10:31:29.849Z,99098.69
2023-03-27T10:34:36.737Z,99095.31
2023-03-27T10:37:28.656Z,99100.91
2023-03-27T10:40:29.117Z,99108.25
2023-03-27T10:43:05.204Z,99100.59
2023-03-27T10:45:42.745Z,99108.78
2023-03-27T10:48:13.852Z,99117.22
2023-03-27T10:50:47.468Z,99104.59
2023-03-27T10:53:26.342Z,99106.03
2023-03-27T10:56:11.995Z,99104.28
2023-03-27T10:58:45.048Z,99102.81
2023-03-27T11:01:19.202Z,99104.78
2023-03-27T11:03:57.086Z,99115.31
2023-03-27T11:06:32.574Z,99111.22
2023-03-27T11:09:06.489Z,99115.44
2023-03-27T11:11:46.320Z,99109.16
2023-03-27T11:14:20.585Z,99112.69
2023-03-27T11:16:55.491Z,99099.91
2023-03-27T11:19:54.773Z,99109.97
2023-03-27T11:22:33.935Z,99103.44
2023-03-27T11:25:12.253Z,99112.13
2023-03-27T11:27:45.723Z,99113.28
2023-03-27T11:30:31.813Z,99110.50
2023-03-27T11:33:24.345Z,99102.25
2023-03-27T11:36:00.856Z,99109.88
2023-03-27T11:38:49.768Z,99102.59
2023-03-27T11:41:18.801Z,99103.50
2023-03-27T11:43:48.001Z,99102.22
2023-03-27T11:47:18.927Z,99109.25
2023-03-27T11:50:01.937Z,99110.03
2023-03-27T11:52:42.849Z,99089.31
2023-03-27T11:55:20.178Z,99093.59
2023-03-27T11:58:04.376Z,99097.88
2023-03-27T12:00:51.166Z,99104.63
2023-03-27T12:03:45.310Z,99106.69
2023-03-27T12:06:25.338Z,99106.34
2023-03-27T12:09:07.400Z,99105.66
2023-03-27T12:11:55.644Z,99098.22
2023-03-27T12:14:40.612Z,99110.84
2023-03-27T12:17:41.909Z,99113.16
2023-03-27T12:20:31.865Z,99095.47
2023-03-27T12:23:26.879Z,99113.13
2023-03-27T12:26:36.135Z,99100.47
2023-03-27T12:29:26.332Z,99101.03
2023-03-27T12:32:20.583Z,99097.53
2023-03-27T12:34:53.406Z,99104.66
2023-03-27T12:37:27.845Z,99106.84
2023-03-27T12:39:59.411Z,99108.38
2023-03-27T12:42:44.794Z,99114.41
2023-03-27T12:45:20.083Z,99120.38
2023-03-27T12:48:10.143Z,99117.41
2023-03-27T12:50:43.764Z,99118.50
2023-03-27T12:53:21.411Z,99126.69
2023-03-27T12:55:50.548Z,99126.47
2023-03-27T12:58:35.228Z,99135.09
2023-03-27T13:01:12.761Z,99135.78
2023-03-27T13:04:04.932Z,99134.66
2023-03-27T13:06:40.688Z,99139.72
2023-03-27T13:09:29.637Z,99145.66
2023-03-27T13:12:22.806Z,99155.66
2023-03-27T13:15:28.262Z,99157.84
2023-03-27T13:18:22.384Z,99159.56
2023-03-27T13:20:58.253Z,99159.50
2023-03-27T13:23:40.180Z,99160.94
2023-03-27T13:26:30.234Z,99172.47
2023-03-27T13:29:01.741Z,99176.44
2023-03-27T13:31:59.388Z,99188.75
2023-03-27T13:34:38.443Z,99177.78
2023-03-27T13:37:39.822Z,99182.53
2023-03-27T13:40:35.144Z,99179.47
2023-03-27T13:43:22.303Z,99187.59
2023-03-27T13:45:58.118Z,99203.03
2023-03-27T13:49:00.770Z,99204.69
2023-03-27T13:52:07.063Z,99208.97
2023-03-27T13:55:01.551Z,99213.88
2023-03-27T13:57:59.130Z,99229.41
2023-03-27T14:01:04.002Z,99226.53
2023-03-27T14:03:58.563Z,99230.22
2023-03-27T14:07:02.440Z,99238.84
2023-03-27T14:09:47.442Z,99250.69
2023-03-27T14:12:25.679Z,99263.84
2023-03-27T14:15:34.917Z,99264.84
2023-03-27T14:18:47.697Z,99269.66
2023-03-27T14:21:27.995Z,99275.66
2023-03-27T14:24:09.779Z,99267.16
2023-03-27T14:26:46.620Z,99267.03
2023-03-27T14:29:21.377Z,99267.22
2023-03-27T14:31:52.747Z,99274.34
2023-03-27T14:34:47.412Z,99282.44
2023-03-27T14:37:42.107Z,99287.50
2023-03-27T14:40:33.816Z,99288.44
2023-03-27T14:43:08.118Z,99298.06
2023-03-27T14:45:40.396Z,99305.75
2023-03-27T14:48:19.346Z,99314.59
2023-03-27T14:50:50.372Z,99326.03
2023-03-27T14:53:26.238Z,99331.16
2023-03-27T14:56:23.990Z,99321.66
2023-03-27T14:58:59.535Z,99333.47
2023-03-27T15:01:37.722Z,99335.16
2023-03-27T15:04:11.201Z,99329.88
2023-03-27T15:06:42.072Z,99345.63
2023-03-27T15:09:16.578Z,99355.94
2023-03-27T15:11:56.870Z,99347.97
2023-03-27T15:14:34.316Z,99352.84
2023-03-27T15:17:08.690Z,99360.22
2023-03-27T15:19:45.473Z,99353.53
2023-03-27T15:22:18.733Z,99382.53
2023-03-27T15:24:51.045Z,99370.53
2023-03-27T15:27:21.943Z,99384.22
2023-03-27T15:29:53.503Z,99399.28
2023-03-27T15:32:23.419Z,99390.88
2023-03-27T15:34:56.922Z,99388.97
2023-03-27T15:37:28.703Z,99399.81
2023-03-27T15:40:09.125Z,99408.38
2023-03-27T15:42:47.149Z,99410.84
2023-03-27T15:45:18.733Z,99408.22
2023-03-27T15:48:00.178Z,99410.44
2023-03-27T15:50:29.232Z,99412.25
2023-03-27T15:52:58.879Z,99418.78
2023-03-27T15:55:37.180Z,99423.34
2023-03-27T15:58:16.357Z,99428.16
2023-03-27T16:00:48.898Z,99434.25
2023-03-27T16:03:21.193Z,99428.16
2023-03-27T16:05:50.811Z,99438.63
2023-03-27T16:08:28.381Z,99449.41
2023-03-27T16:11:00.651Z,99450.16
2023-03-27T16:13:35.860Z,99459.72
2023-03-27T16:16:21.932Z,99460.53
2023-03-27T16:18:52.047Z,99465.53
2023-03-27T16:21:23.188Z,99464.97
2023-03-27T16:23:52.340Z,99467.16
2023-03-27T16:26:25.208Z,99464.94
2023-03-27T16:29:01.863Z,99478.50
2023-03-27T16:31:32.293Z,99481.16
2023-03-27T16:34:01.334Z,99485.16
2023-03-27T16:36:32.180Z,99502.03
2023-03-27T16:39:01.066Z,99508.56
2023-03-27T16:41:29.895Z,99513.44
2023-03-27T16:43:58.808Z,99522.03
2023-03-27T16:46:28.806Z,99520.50
2023-03-27T16:48:59.378Z,99518.69
2023-03-27T16:51:29.181Z,99531.41
2023-03-27T16:53:58.215Z,99529.72
2023-03-27T16:56:27.164Z,99533.75
2023-03-27T16:58:55.798Z,99554.06
2023-03-27T17:01:25.273Z,99542.16
2023-03-27T17:03:54.096Z,99553.34
2023-03-27T17:06:24.447Z,99556.88
2023-03-27T17:08:55.753Z,99552.81
2023-03-27T17:11:24.786Z,99564.69
2023-03-27T17:13:53.922Z,99573.78
2023-03-27T17:16:23.127Z,99578.81
2023-03-27T17:18:53.713Z,99568.56
2023-03-27T17:21:24.217Z,99583.19
2023-03-27T17:23:54.410Z,99589.28
2023-03-27T17:26:24.605Z,99598.66
2023-03-27T17:28:54.103Z,99602.16
2023-03-27T17:31:22.980Z,99602.69
2023-03-27T17:33:52.210Z,99602.81
2023-03-27T17:36:36.724Z,99601.31
2023-03-27T17:39:09.744Z,99611.31
2023-03-27T17:41:38.642Z,99617.31
2023-03-27T17:44:08.038Z,99614.31
2023-03-27T17:46:36.645Z,99621.34
2023-03-27T17:49:05.588Z,99625.53
2023-03-27T17:51:37.202Z,99632.91
2023-03-27T17:54:06.363Z,99633.75
2023-03-27T17:56:35.874Z,99632.41
2023-03-27T17:59:06.043Z,99637.31
2023-03-27T18:01:34.545Z,99645.84
2023-03-27T18:04:03.741Z,99656.66
2023-03-27T18:06:32.798Z,99657.63
2023-03-27T18:09:03.197Z,99660.75
2023-03-27T18:11:32.594Z,99665.00
2023-03-27T18:14:01.511Z,99661.72
2023-03-27T18:16:30.571Z,99665.56
2023-03-27T18:19:02.312Z,99670.13
2023-03-27T18:21:31.294Z,99677.13
2023-03-27T18:24:00.403Z,99674.47
2023-03-27T18:26:30.755Z,99680.03
2023-03-27T18:28:59.315Z,99688.03
2023-03-27T18:31:27.986Z,99680.97
2023-03-27T18:33:56.811Z,99694.47
2023-03-27T18:36:26.172Z,99696.25
2023-03-27T18:38:54.986Z,99692.03
2023-03-27T18:41:24.245Z,99703.94
2023-03-27T18:43:54.199Z,99706.22
2023-03-27T18:46:23.418Z,99708.06
2023-03-27T18:48:52.625Z,99714.41
2023-03-27T18:51:21.501Z,99720.69
2023-03-27T18:53:51.149Z,99719.03
2023-03-27T18:56:20.026Z,99717.00
2023-03-27T18:58:48.500Z,99722.84
2023-03-27T19:01:18.932Z,99713.31
2023-03-27T19:03:49.269Z,99726.19
2023-03-27T19:06:20.297Z,99721.91
2023-03-27T19:08:49.124Z,99724.28
2023-03-27T19:11:19.206Z,99727.03
2023-03-27T19:14:20.454Z,99727.84
2023-03-27T19:17:15.010Z,99733.91
2023-03-27T19:20:02.630Z,99734.13
2023-03-27T19:22:45.865Z,99736.31
2023-03-27T19:25:28.670Z,99746.25
2023-03-27T19:27:57.544Z,99745.66
2023-03-27T19:30:26.426Z,99742.06
2023-03-27T19:32:59.238Z,99745.16
2023-03-27T19:35:28.171Z,99751.22
2023-03-27T19:37:57.199Z,99752.97
2023-03-27T19:40:26.294Z,99746.16
2023-03-27T19:42:55.130Z,99752.72
2023-03-27T19:45:24.028Z,99752.22
2023-03-27T19:47:53.027Z,99750.16
2023-03-27T19:50:23.958Z,99758.81
2023-03-27T19:53:05.854Z,99752.63
2023-03-27T19:55:36.940Z,99760.13
2023-03-27T19:58:06.114Z,99763.97
2023-03-27T20:00:38.445Z,99755.84
2023-03-27T20:03:10.576Z,99770.59
2023-03-27T20:05:41.870Z,99765.34
2023-03-27T20:08:10.833Z,99760.97
2023-03-27T20:10:39.392Z,99772.69
2023-03-27T20:13:08.307Z,99766.72
2023-03-27T20:15:40.816Z,99777.50
2023-03-27T20:18:09.899Z,99773.84
2023-03-27T20:20:40.952Z,99786.81
2023-03-27T20:23:10.090Z,99781.81
2023-03-27T20:25:38.566Z,99791.63
2023-03-27T20:28:07.997Z,99790.41
2023-03-27T20:30:38.724Z,99794.59
2023-03-27T20:33:09.220Z,99792.28
2023-03-27T20:35:38.247Z,99791.75
2023-03-27T20:38:12.270Z,99793.72
2023-03-27T20:40:53.280Z,99785.69
2023-03-27T20:43:27.208Z,99785.69
2023-03-27T20:45:59.103Z,99796.88
2023-03-27T20:48:32.625Z,99796.69
2023-03-27T20:51:03.034Z,99804.31
2023-03-27T20:53:34.341Z,99796.97
2023-03-27T20:56:05.006Z,99796.56
2023-03-27T20:58:34.878Z,99804.50
2023-03-27T21:01:05.358Z,99794.69
2023-03-27T21:03:35.191Z,99797.28
2023-03-27T21:06:07.960Z,99801.56
2023-03-27T21:08:39.238Z,99805.94
2023-03-27T21:11:08.385Z,99794.66
2023-03-27T21:13:37.907Z,99793.94
2023-03-27T21:16:09.825Z,99791.31
2023-03-27T21:18:38.669Z,99792.00
2023-03-27T21:21:08.004Z,99795.66
2023-03-27T21:23:40.788Z,99800.56
2023-03-27T21:26:09.725Z,99789.84
2023-03-27T21:28:39.045Z,99799.81
2023-03-27T21:31:08.939Z,99798.13
2023-03-27T21:33:38.252Z,99796.78
2023-03-27T21:36:07.884Z,99795.50
2023-03-27T21:38:36.905Z,99797.38
2023-03-27T21:41:08.214Z,99802.50
2023-03-27T21:43:37.004Z,99801.59
2023-03-27T21:46:06.477Z,99793.28
2023-03-27T21:48:35.486Z,99797.03
2023-03-27T21:51:06.280Z,99789.16
2023-03-27T21:53:35.751Z,99789.63
2023-03-27T21:56:06.546Z,99787.94
2023-03-27T21:58:35.292Z,99781.09
2023-03-27T22:01:04.467Z,99785.75
2023-03-27T22:03:33.402Z,99790.59
2023-03-27T22:08:40.138Z,99785.19
2023-03-27T22:11:10.886Z,99778.38
2023-03-27T22:13:40.206Z,99784.81
2023-03-27T22:16:10.401Z,99784.81
2023-03-27T22:18:39.549Z,99786.88
2023-03-27T22:21:16.321Z,99786.81
2023-03-27T22:23:45.444Z,99794.91
2023-03-27T22:26:15.696Z,99791.09
2023-03-27T22:28:44.382Z,99787.06
2023-03-27T22:31:13.526Z,99787.00
2023-03-27T22:33:42.639Z,99794.06
2023-03-27T22:36:12.685Z,99786.53
2023-03-27T22:38:42.124Z,99787.25
2023-03-27T22:41:13.259Z,99789.97
2023-03-27T22:43:43.376Z,99790.06
2023-03-27T22:46:14.096Z,99789.25
2023-03-27T22:48:43.435Z,99783.41
2023-03-27T22:51:13.436Z,99783.78
2023-03-27T22:53:42.126Z,99788.47
2023-03-27T22:56:14.094Z,99781.19
2023-03-27T22:58:44.322Z,99790.66
2023-03-27T23:01:13.610Z,99793.75
2023-03-27T23:03:42.654Z,99791.41
2023-03-27T23:06:18.252Z,99793.16
2023-03-27T23:08:48.267Z,99801.84
2023-03-27T23:11:17.266Z,99801.19
2023-03-27T23:13:47.546Z,99806.97
2023-03-27T23:16:16.796Z,99809.28
2023-03-27T23:18:45.704Z,99811.63
2023-03-27T23:21:16.850Z,99813.00
2023-03-27T23:23:46.165Z,99819.50
2023-03-27T23:26:15.874Z,99821.19
2023-03-27T23:28:44.621Z,99821.38
2023-03-27T23:31:16.349Z,99827.06
2023-03-27T23:33:46.989Z,99831.25
2023-03-27T23:36:17.430Z,99823.91
2023-03-27T23:38:46.527Z,99821.56
2023-03-27T23:41:16.620Z,99823.06
2023-03-27T23:43:45.559Z,99824.72
2023-03-27T23:46:16.060Z,99833.66
2023-03-27T23:48:45.754Z,99831.78
2023-03-27T23:51:16.752Z,99831.88
2023-03-27T23:53:45.992Z,99830.88
2023-03-27T23:56:15.336Z,99836.81
2023-03-27T23:58:43.984Z,99830.31
